首页
METAR-TAF:

METAR-TAF

机场 :

达兰萨拉, 印度

纬度: 32-09-54N, 经度: 76-15-48E, 海拔: 770米

METAR: 丢失

时间: 14:45 (09:15 UTC)

预报

该预报发布于10小时和15分钟前的23:00 UTC
预报有效从01日的 00点(UTC)到 01日的 09点(UTC)
风速5节,风向西转西南
能見度: 5000
散云层高于2500英尺
阴天层高于8000英尺
轻雾, 小雨
短暂存在
从 01日的 07点(UTC)到 01日的 09点(UTC)
少量云层高于3500英尺, 积雨云.

TAF: VIGG 312300Z 0100/0109 25005KT 5000 BR -RA SCT025 OVC080 TEMPO 0107/0109 FEW035CB

超过4000个机场的气象观测和天气预报(METAR&TAF报告)。

可查询的气象台以黄色和红色小点在地图上表示。

将鼠标移到小点上方,可查看气象台名称。

然后点击查看天气观测和预报。

如需切换地图:点击带黑十字的绿色按钮放大地图;点击带横线的绿色按钮缩小地图;或者点击绿色箭头查看邻近地区的地图。


METAR-TAF: